Current Weather

Elkhart Municipal Airport

Elkhart Municipal Airport, Indiana (KEKM)

Report from: Thursday, May 19, 2022 12:52 PM EDT
Current time: Thursday, May 19, 2022 1:59 PM EDT

Nearby weather
Weather history
Weather forecast

Temperature22.0°C (71.6°F)
Dew point17.0°C (62.6°F)
Winds 13 kts (6.7 m/s, 15 mph) South-Southwest (200°)
Visibility10 mi. (16.1 km)
Clouds Few clouds 1,800 ft. (549 m)
Altimeter29.71 in.Hg (1006 mB)
Relative humidity73 %
Density altitude1,323 ft. (403 m)
Flight conditions Visual Meteorological Conditions
Raw dataKEKM 191652Z 20013KT 10SM FEW018 22/17 A2971
An error has occurred. This application may no longer respond until reloaded. Reload 🗙